createdAt,value
2023-02-06T00:00:44.992Z,78.73
2023-02-06T00:03:11.599Z,78.72
2023-02-06T00:05:38.278Z,77.95
2023-02-06T00:08:07.076Z,78.79
2023-02-06T00:10:34.004Z,79.67
2023-02-06T00:13:00.632Z,78.75
2023-02-06T00:15:27.002Z,78.96
2023-02-06T00:17:53.346Z,78.98
2023-02-06T00:20:19.690Z,78.58
2023-02-06T00:22:46.068Z,78.10
2023-02-06T00:25:12.425Z,77.94
2023-02-06T00:27:39.170Z,78.25
2023-02-06T00:30:06.191Z,77.97
2023-02-06T00:32:34.647Z,78.44
2023-02-06T00:35:01.215Z,78.12
2023-02-06T00:37:27.680Z,78.28
2023-02-06T00:39:54.045Z,78.34
2023-02-06T00:42:20.641Z,78.34
2023-02-06T00:44:47.010Z,78.55
2023-02-06T00:47:13.367Z,78.48
2023-02-06T00:49:39.718Z,78.99
2023-02-06T00:52:06.052Z,78.67
2023-02-06T00:54:32.401Z,78.60
2023-02-06T00:56:58.775Z,79.04
2023-02-06T00:59:25.144Z,78.10
2023-02-06T01:01:51.781Z,78.45
2023-02-06T01:04:18.321Z,78.88
2023-02-06T01:06:44.652Z,79.35
2023-02-06T01:09:11.033Z,79.56
2023-02-06T01:11:37.420Z,79.35
2023-02-06T01:14:03.901Z,79.01
2023-02-06T01:16:30.559Z,78.70
2023-02-06T01:18:56.930Z,79.61
2023-02-06T01:21:24.904Z,79.53
2023-02-06T01:23:53.446Z,79.98
2023-02-06T01:26:22.803Z,79.96
2023-02-06T01:28:49.951Z,80.44
2023-02-06T01:31:22.549Z,79.91
2023-02-06T01:33:50.040Z,79.66
2023-02-06T01:36:17.758Z,79.75
2023-02-06T01:38:44.651Z,80.02
2023-02-06T01:41:12.795Z,80.09
2023-02-06T01:43:42.976Z,79.41
2023-02-06T01:46:09.808Z,80.53
2023-02-06T01:48:44.017Z,80.35
2023-02-06T01:51:15.093Z,80.72
2023-02-06T01:53:44.713Z,80.31
2023-02-06T01:56:11.977Z,80.81
2023-02-06T01:58:44.279Z,80.41
2023-02-06T02:01:11.361Z,80.10
2023-02-06T02:03:41.665Z,80.92
2023-02-06T02:06:12.248Z,79.90
2023-02-06T02:08:42.482Z,79.89
2023-02-06T02:11:11.821Z,79.93
2023-02-06T02:13:38.664Z,80.16
2023-02-06T02:16:18.144Z,79.54
2023-02-06T02:19:07.526Z,79.87
2023-02-06T02:21:54.867Z,79.83
2023-02-06T02:24:40.022Z,80.46
2023-02-06T02:27:17.767Z,79.96
2023-02-06T02:30:16.611Z,79.37
2023-02-06T02:32:58.747Z,79.92
2023-02-06T02:35:32.777Z,79.91
2023-02-06T02:38:13.467Z,80.16
2023-02-06T02:40:49.602Z,80.03
2023-02-06T02:43:28.548Z,80.61
2023-02-06T02:45:58.563Z,80.90
2023-02-06T02:48:40.685Z,80.69
2023-02-06T02:51:07.881Z,80.15
2023-02-06T02:53:34.572Z,80.93
2023-02-06T02:56:01.290Z,81.15
2023-02-06T02:58:32.580Z,80.73
2023-02-06T03:01:11.543Z,81.17
2023-02-06T03:03:41.923Z,80.72
2023-02-06T03:06:28.642Z,81.54
2023-02-06T03:09:11.510Z,81.15
2023-02-06T03:11:45.280Z,81.17
2023-02-06T03:14:22.209Z,81.39
2023-02-06T03:16:54.478Z,81.45
2023-02-06T03:19:29.024Z,81.85
2023-02-06T03:21:55.501Z,81.10
2023-02-06T03:24:28.518Z,80.93
2023-02-06T03:26:59.944Z,80.53
2023-02-06T03:29:29.969Z,80.66
2023-02-06T03:32:02.319Z,80.17
2023-02-06T03:34:41.398Z,80.16
2023-02-06T03:37:08.076Z,79.88
2023-02-06T03:39:34.823Z,80.50
2023-02-06T03:42:02.576Z,80.26
2023-02-06T03:44:33.655Z,80.64
2023-02-06T03:47:01.560Z,80.05
2023-02-06T03:49:30.202Z,80.30
2023-02-06T03:52:04.824Z,79.68
2023-02-06T03:54:32.252Z,79.57
2023-02-06T03:57:03.225Z,79.87
2023-02-06T03:59:30.481Z,79.73
2023-02-06T04:01:59.292Z,80.23
2023-02-06T04:04:29.777Z,79.91
2023-02-06T04:07:21.290Z,79.67
2023-02-06T04:09:47.856Z,80.10
2023-02-06T04:12:15.330Z,79.64
2023-02-06T04:14:42.479Z,79.91
2023-02-06T04:17:10.325Z,79.96
2023-02-06T04:19:37.429Z,80.44
2023-02-06T04:22:04.382Z,79.90
2023-02-06T04:24:31.195Z,80.35
2023-02-06T04:26:58.215Z,79.68
2023-02-06T04:29:24.840Z,80.82
2023-02-06T04:31:51.467Z,80.69
2023-02-06T04:34:17.830Z,80.18
2023-02-06T04:36:44.180Z,80.70
2023-02-06T04:39:10.543Z,80.59
2023-02-06T04:41:36.923Z,80.51
2023-02-06T04:44:03.505Z,80.23
2023-02-06T04:46:29.885Z,80.00
2023-02-06T04:48:56.219Z,80.36
2023-02-06T04:51:22.603Z,80.30
2023-02-06T04:53:48.949Z,80.36
2023-02-06T04:56:15.275Z,80.61
2023-02-06T04:58:41.637Z,80.60
2023-02-06T05:01:07.994Z,80.95
2023-02-06T05:03:34.517Z,80.69
2023-02-06T05:06:02.643Z,80.87
2023-02-06T05:08:29.303Z,80.49
2023-02-06T05:10:56.429Z,80.31
2023-02-06T05:13:23.672Z,79.69
2023-02-06T05:15:50.456Z,80.25
2023-02-06T05:18:17.089Z,79.75
2023-02-06T05:20:43.826Z,80.27
2023-02-06T05:23:10.485Z,79.76
2023-02-06T05:25:37.349Z,80.08
2023-02-06T05:28:06.618Z,80.18
2023-02-06T05:30:36.220Z,80.39
2023-02-06T05:33:02.672Z,80.36
2023-02-06T05:35:29.328Z,80.66
2023-02-06T05:37:55.716Z,80.47
2023-02-06T05:40:22.105Z,80.09
2023-02-06T05:42:48.456Z,80.46
2023-02-06T05:45:14.817Z,80.44
2023-02-06T05:47:41.261Z,80.20
2023-02-06T05:50:07.854Z,79.64
2023-02-06T05:52:34.321Z,80.45
2023-02-06T05:55:00.823Z,80.36
2023-02-06T05:57:27.161Z,80.53
2023-02-06T05:59:53.499Z,80.52
2023-02-06T06:02:19.899Z,80.31
2023-02-06T06:04:46.333Z,81.05
2023-02-06T06:07:13.104Z,80.33
2023-02-06T06:09:39.425Z,80.58
2023-02-06T06:12:05.999Z,80.46
2023-02-06T06:14:32.336Z,80.94
2023-02-06T06:16:58.679Z,80.77
2023-02-06T06:19:25.066Z,80.20
2023-02-06T06:21:51.629Z,80.58
2023-02-06T06:24:18.096Z,80.41
2023-02-06T06:26:44.445Z,80.50
2023-02-06T06:29:10.769Z,80.98
2023-02-06T06:31:37.137Z,81.19
2023-02-06T06:34:03.507Z,80.56
2023-02-06T06:36:29.907Z,80.42
2023-02-06T06:38:56.252Z,80.43
2023-02-06T06:41:22.641Z,81.78
2023-02-06T06:43:51.289Z,80.60
2023-02-06T06:46:19.837Z,80.68
2023-02-06T06:48:46.228Z,80.70
2023-02-06T06:51:12.612Z,81.45
2023-02-06T06:53:39.966Z,80.15
2023-02-06T06:56:07.818Z,81.20
2023-02-06T06:58:34.568Z,80.67
2023-02-06T07:01:01.054Z,80.24
2023-02-06T07:03:27.696Z,80.60
2023-02-06T07:05:54.119Z,80.44
2023-02-06T07:08:20.451Z,80.61
2023-02-06T07:10:47.594Z,81.35
2023-02-06T07:13:15.422Z,81.12
2023-02-06T07:15:42.824Z,80.68
2023-02-06T07:18:11.581Z,80.80
2023-02-06T07:20:38.214Z,81.36
2023-02-06T07:23:05.612Z,80.97
2023-02-06T07:25:32.474Z,80.53
2023-02-06T07:27:59.092Z,80.64
2023-02-06T07:30:25.709Z,81.13
2023-02-06T07:32:52.198Z,81.14
2023-02-06T07:35:18.695Z,80.43
2023-02-06T07:37:45.032Z,80.68
2023-02-06T07:40:12.263Z,80.56
2023-02-06T07:42:40.169Z,80.55
2023-02-06T07:45:06.818Z,80.29
2023-02-06T07:47:33.209Z,80.50
2023-02-06T07:49:59.578Z,80.20
2023-02-06T07:52:26.017Z,80.24
2023-02-06T07:54:52.382Z,80.46
2023-02-06T07:57:21.795Z,80.06
2023-02-06T07:59:48.156Z,80.84
2023-02-06T08:02:14.514Z,81.53
2023-02-06T08:04:40.960Z,82.52
2023-02-06T08:07:11.103Z,79.63
2023-02-06T08:09:37.457Z,79.92
2023-02-06T08:12:04.040Z,79.24
2023-02-06T08:14:31.219Z,79.57
2023-02-06T08:16:57.649Z,79.69
2023-02-06T08:19:24.070Z,79.43
2023-02-06T08:21:50.876Z,79.43
2023-02-06T08:24:17.575Z,80.39
2023-02-06T08:26:44.017Z,80.83
2023-02-06T08:29:10.998Z,79.02
2023-02-06T08:31:39.895Z,79.09
2023-02-06T08:34:08.041Z,79.27
2023-02-06T08:36:34.711Z,79.65
2023-02-06T08:39:01.974Z,80.14
2023-02-06T08:41:39.268Z,79.34
2023-02-06T08:44:11.598Z,79.65
2023-02-06T08:46:38.840Z,79.91
2023-02-06T08:49:08.164Z,79.56
2023-02-06T08:51:35.476Z,79.40
2023-02-06T08:54:05.808Z,79.26
2023-02-06T08:56:33.837Z,79.05
2023-02-06T08:59:01.687Z,81.34
2023-02-06T09:01:30.397Z,80.25
2023-02-06T09:03:58.373Z,79.23
2023-02-06T09:06:25.770Z,79.10
2023-02-06T09:08:53.133Z,79.38
2023-02-06T09:11:21.943Z,78.49
2023-02-06T09:13:49.547Z,79.11
2023-02-06T09:16:18.233Z,78.42
2023-02-06T09:18:45.166Z,78.91
2023-02-06T09:21:20.297Z,78.69
2023-02-06T09:23:49.810Z,78.76
2023-02-06T09:26:19.167Z,78.80
2023-02-06T09:28:45.642Z,78.51
2023-02-06T09:31:12.194Z,78.36
2023-02-06T09:33:39.434Z,78.58
2023-02-06T09:36:13.836Z,78.57
2023-02-06T09:38:44.034Z,79.12
2023-02-06T09:41:24.042Z,78.91
2023-02-06T09:43:54.490Z,79.20
2023-02-06T09:46:27.452Z,79.25
2023-02-06T09:48:57.102Z,78.88
2023-02-06T09:51:50.941Z,78.85
2023-02-06T09:54:30.165Z,79.09
2023-02-06T09:57:34.840Z,79.08
2023-02-06T10:00:20.318Z,79.72
2023-02-06T10:03:08.145Z,79.69
2023-02-06T10:05:43.650Z,79.65
2023-02-06T10:08:13.028Z,79.36
2023-02-06T10:10:49.005Z,79.40
2023-02-06T10:13:24.515Z,79.38
2023-02-06T10:15:55.982Z,79.23
2023-02-06T10:18:28.364Z,79.51
2023-02-06T10:21:05.986Z,78.73
2023-02-06T10:23:47.446Z,79.29
2023-02-06T10:26:19.307Z,79.36
2023-02-06T10:28:52.430Z,80.01
2023-02-06T10:31:24.797Z,79.96
2023-02-06T10:34:10.220Z,80.59
2023-02-06T10:37:09.959Z,80.33
2023-02-06T10:39:49.493Z,80.55
2023-02-06T10:42:25.777Z,80.47
2023-02-06T10:45:29.986Z,80.80
2023-02-06T10:48:09.295Z,79.58
2023-02-06T10:50:44.235Z,80.74
2023-02-06T10:53:17.837Z,80.88
2023-02-06T10:55:57.055Z,81.26
2023-02-06T10:58:37.426Z,80.60
2023-02-06T11:01:20.206Z,80.49
2023-02-06T11:04:10.502Z,80.58
2023-02-06T11:06:40.113Z,80.90
2023-02-06T11:09:06.494Z,81.20
2023-02-06T11:11:39.347Z,80.89
2023-02-06T11:14:18.514Z,81.91
2023-02-06T11:16:46.719Z,81.75
2023-02-06T11:19:17.631Z,82.18
2023-02-06T11:21:43.966Z,81.86
2023-02-06T11:24:16.721Z,82.00
2023-02-06T11:26:48.787Z,81.98
2023-02-06T11:29:22.450Z,82.14
2023-02-06T11:31:53.179Z,82.41
2023-02-06T11:34:24.598Z,82.62
2023-02-06T11:37:02.426Z,82.70
2023-02-06T11:39:30.605Z,82.94
2023-02-06T11:42:13.662Z,83.19
2023-02-06T11:44:42.502Z,82.98
2023-02-06T11:47:32.306Z,82.83
2023-02-06T11:50:14.082Z,83.58
2023-02-06T11:52:44.619Z,83.63
2023-02-06T11:55:26.298Z,83.63
2023-02-06T11:58:11.535Z,83.49
2023-02-06T12:00:56.844Z,83.41
2023-02-06T12:03:59.255Z,83.27
2023-02-06T12:06:33.169Z,83.00
2023-02-06T12:09:01.741Z,83.46
2023-02-06T12:11:34.557Z,83.62
2023-02-06T12:14:16.834Z,83.41
2023-02-06T12:16:47.694Z,83.24
2023-02-06T12:19:23.889Z,83.46
2023-02-06T12:21:57.771Z,82.21
2023-02-06T12:24:30.041Z,81.88
2023-02-06T12:26:59.332Z,82.58
2023-02-06T12:29:42.317Z,82.54
2023-02-06T12:32:21.030Z,82.72
2023-02-06T12:34:56.204Z,82.11
2023-02-06T12:37:31.870Z,81.52
2023-02-06T12:40:00.333Z,81.31
2023-02-06T12:42:38.541Z,81.01
2023-02-06T12:45:14.800Z,80.95
2023-02-06T12:47:56.331Z,81.20
2023-02-06T12:50:33.831Z,81.29
2023-02-06T12:53:10.508Z,81.40
2023-02-06T12:55:44.503Z,80.98
2023-02-06T12:58:28.101Z,80.78
2023-02-06T13:01:32.266Z,80.81
2023-02-06T13:04:05.330Z,80.59
2023-02-06T13:06:43.860Z,80.23
2023-02-06T13:09:20.475Z,80.49
2023-02-06T13:11:47.206Z,82.25
2023-02-06T13:14:29.003Z,80.55
2023-02-06T13:17:17.239Z,80.11
2023-02-06T13:19:43.536Z,79.94
2023-02-06T13:22:09.808Z,80.34
2023-02-06T13:24:41.108Z,79.75
2023-02-06T13:27:07.388Z,79.21
2023-02-06T13:29:42.739Z,79.57
2023-02-06T13:32:12.013Z,79.21
2023-02-06T13:34:44.391Z,79.18
2023-02-06T13:37:25.879Z,79.07
2023-02-06T13:40:23.329Z,79.06
2023-02-06T13:43:25.534Z,78.54
2023-02-06T13:45:51.810Z,77.37
2023-02-06T13:48:37.630Z,77.39
2023-02-06T13:51:29.268Z,76.78
2023-02-06T13:54:28.249Z,77.23
2023-02-06T13:57:10.526Z,77.00
2023-02-06T13:59:40.679Z,77.62
2023-02-06T14:02:13.313Z,77.52
2023-02-06T14:04:40.128Z,77.54
2023-02-06T14:07:28.390Z,77.70
2023-02-06T14:10:28.248Z,77.01
2023-02-06T14:13:15.046Z,75.90
2023-02-06T14:15:56.241Z,75.84
2023-02-06T14:18:50.779Z,76.01
2023-02-06T14:21:38.599Z,75.37
2023-02-06T14:24:38.963Z,74.60
2023-02-06T14:27:15.190Z,75.15
2023-02-06T14:29:56.876Z,73.92
2023-02-06T14:32:43.481Z,74.65
2023-02-06T14:35:47.595Z,73.59
2023-02-06T14:38:32.952Z,72.86
2023-02-06T14:41:01.776Z,72.62
2023-02-06T14:43:32.142Z,73.21
2023-02-06T14:46:07.485Z,73.37
2023-02-06T14:48:47.388Z,72.81
2023-02-06T14:51:35.243Z,72.71
2023-02-06T14:54:04.863Z,71.60
2023-02-06T14:56:37.037Z,70.64
2023-02-06T14:59:12.376Z,69.62
2023-02-06T15:01:39.678Z,70.29
2023-02-06T15:04:15.072Z,71.43
2023-02-06T15:06:49.645Z,74.51
2023-02-06T15:09:24.076Z,72.26
2023-02-06T15:11:56.498Z,68.07
2023-02-06T15:14:28.466Z,66.89
2023-02-06T15:17:00.113Z,65.65
2023-02-06T15:19:29.783Z,66.13
2023-02-06T15:22:02.702Z,69.02
2023-02-06T15:24:44.311Z,67.88
2023-02-06T15:27:30.371Z,74.11
2023-02-06T15:29:57.238Z,75.21
2023-02-06T15:32:37.867Z,76.41
2023-02-06T15:35:19.416Z,77.09
2023-02-06T15:37:46.022Z,77.85
2023-02-06T15:40:15.280Z,78.24
2023-02-06T15:42:42.072Z,79.13
2023-02-06T15:45:19.237Z,79.81
2023-02-06T15:47:46.108Z,80.02
2023-02-06T15:50:18.926Z,80.18
2023-02-06T15:52:47.430Z,80.11
2023-02-06T15:55:35.682Z,79.99
2023-02-06T15:58:05.190Z,80.15
2023-02-06T16:00:35.444Z,79.62
2023-02-06T16:03:07.676Z,77.02
2023-02-06T16:05:40.519Z,72.75
2023-02-06T16:08:20.200Z,73.59
2023-02-06T16:10:57.961Z,73.37
2023-02-06T16:13:27.586Z,71.59
2023-02-06T16:16:09.469Z,70.40
2023-02-06T16:18:38.420Z,69.89
2023-02-06T16:21:18.430Z,69.98
2023-02-06T16:23:49.051Z,70.93
2023-02-06T16:26:30.268Z,70.46
2023-02-06T16:29:16.379Z,70.37
2023-02-06T16:31:44.734Z,69.88
2023-02-06T16:34:32.305Z,69.79
2023-02-06T16:36:58.658Z,69.30
2023-02-06T16:39:25.045Z,69.96
2023-02-06T16:41:52.887Z,70.57
2023-02-06T16:44:20.171Z,70.88
2023-02-06T16:46:46.760Z,71.70
2023-02-06T16:49:16.596Z,71.09
2023-02-06T16:51:44.227Z,71.08
2023-02-06T16:54:23.275Z,70.40
2023-02-06T16:56:49.894Z,71.69
2023-02-06T16:59:16.281Z,70.84
2023-02-06T17:01:42.685Z,71.64
2023-02-06T17:04:09.036Z,71.97
2023-02-06T17:06:36.004Z,72.27
2023-02-06T17:09:08.836Z,72.77
2023-02-06T17:11:36.910Z,72.46
2023-02-06T17:14:03.452Z,72.22
2023-02-06T17:16:31.213Z,72.70
2023-02-06T17:18:57.890Z,73.00
2023-02-06T17:21:24.812Z,73.70
2023-02-06T17:23:51.708Z,74.34
2023-02-06T17:26:21.200Z,73.94
2023-02-06T17:28:48.457Z,74.14
2023-02-06T17:31:15.224Z,74.50
2023-02-06T17:33:41.712Z,73.73
2023-02-06T17:36:15.581Z,74.19
2023-02-06T17:38:41.925Z,74.70
2023-02-06T17:41:08.303Z,74.03
2023-02-06T17:43:36.241Z,74.30
2023-02-06T17:46:04.892Z,73.86
2023-02-06T17:48:32.566Z,74.04
2023-02-06T17:50:59.030Z,74.69
2023-02-06T17:53:25.371Z,74.07
2023-02-06T17:55:51.736Z,74.27
2023-02-06T17:58:18.769Z,74.56
2023-02-06T18:00:49.170Z,74.44
2023-02-06T18:03:18.140Z,76.19
2023-02-06T18:05:45.012Z,76.29
2023-02-06T18:08:11.920Z,76.59
2023-02-06T18:10:39.420Z,76.46
2023-02-06T18:13:05.870Z,75.74
2023-02-06T18:15:32.346Z,75.93
2023-02-06T18:17:59.583Z,75.61
2023-02-06T18:20:25.966Z,75.94
2023-02-06T18:22:52.428Z,75.53
2023-02-06T18:25:18.891Z,75.04
2023-02-06T18:27:45.994Z,75.79
2023-02-06T18:30:14.543Z,74.83
2023-02-06T18:32:41.095Z,74.54
2023-02-06T18:35:09.038Z,73.88
2023-02-06T18:37:35.715Z,74.91
2023-02-06T18:40:02.797Z,76.25
2023-02-06T18:42:47.548Z,76.43
2023-02-06T18:45:13.935Z,76.72
2023-02-06T18:47:42.306Z,77.36
2023-02-06T18:50:12.029Z,78.24
2023-02-06T18:52:39.293Z,77.85
2023-02-06T18:55:08.105Z,78.32
2023-02-06T18:57:35.614Z,79.16
2023-02-06T19:00:04.026Z,78.78
2023-02-06T19:02:30.474Z,78.52
2023-02-06T19:04:58.820Z,78.76
2023-02-06T19:07:25.545Z,78.43
2023-02-06T19:09:59.261Z,78.51
2023-02-06T19:12:30.370Z,78.71
2023-02-06T19:14:57.988Z,79.00
2023-02-06T19:17:26.139Z,80.15
2023-02-06T19:19:52.737Z,79.86
2023-02-06T19:22:19.227Z,79.50
2023-02-06T19:24:45.592Z,79.61
2023-02-06T19:27:13.057Z,79.62
2023-02-06T19:29:39.569Z,79.89
2023-02-06T19:32:07.923Z,80.35
2023-02-06T19:34:36.397Z,80.14
2023-02-06T19:37:07.668Z,79.73
2023-02-06T19:39:35.704Z,79.54
2023-02-06T19:42:06.795Z,79.86
2023-02-06T19:44:34.061Z,80.07
2023-02-06T19:47:01.643Z,80.76
2023-02-06T19:49:28.176Z,81.47
2023-02-06T19:51:54.828Z,81.25
2023-02-06T19:54:21.171Z,81.68
2023-02-06T19:56:47.784Z,82.04
2023-02-06T19:59:26.053Z,81.66
2023-02-06T20:02:02.421Z,82.24
2023-02-06T20:04:34.647Z,82.31
2023-02-06T20:07:01.552Z,81.68
2023-02-06T20:09:28.458Z,82.02
2023-02-06T20:11:55.034Z,82.36
2023-02-06T20:14:22.123Z,82.33
2023-02-06T20:16:49.208Z,82.62
2023-02-06T20:19:18.947Z,81.94
2023-02-06T20:21:48.123Z,81.98
2023-02-06T20:24:23.498Z,82.34
2023-02-06T20:26:55.657Z,82.28
2023-02-06T20:29:31.638Z,82.25
2023-02-06T20:31:58.746Z,82.63
2023-02-06T20:34:26.970Z,82.63
2023-02-06T20:36:56.832Z,82.09
2023-02-06T20:39:24.209Z,82.46
2023-02-06T20:41:50.747Z,82.14
2023-02-06T20:44:18.291Z,82.24
2023-02-06T20:46:45.110Z,82.30
2023-02-06T20:49:20.059Z,82.55
2023-02-06T20:51:48.923Z,82.04
2023-02-06T20:54:15.949Z,81.94
2023-02-06T20:56:42.466Z,82.76
2023-02-06T20:59:12.716Z,81.97
2023-02-06T21:01:39.940Z,82.37
2023-02-06T21:04:09.487Z,82.22
2023-02-06T21:06:37.306Z,82.93
2023-02-06T21:09:05.850Z,82.29
2023-02-06T21:11:35.521Z,82.00
2023-02-06T21:14:04.813Z,81.77
2023-02-06T21:16:32.104Z,82.06
2023-02-06T21:18:59.952Z,81.66
2023-02-06T21:21:26.733Z,81.84
2023-02-06T21:23:55.843Z,81.61
2023-02-06T21:26:23.684Z,82.12
2023-02-06T21:28:50.484Z,82.31
2023-02-06T21:31:20.991Z,82.34
2023-02-06T21:33:49.114Z,83.12
2023-02-06T21:36:15.790Z,82.63
2023-02-06T21:38:42.750Z,82.35
2023-02-06T21:41:13.249Z,82.56
2023-02-06T21:43:39.659Z,82.98
2023-02-06T21:46:06.859Z,82.12
2023-02-06T21:48:34.347Z,82.37
2023-02-06T21:51:12.706Z,82.31
2023-02-06T21:53:39.457Z,82.15
2023-02-06T21:56:11.815Z,82.20
2023-02-06T21:58:38.154Z,82.56
2023-02-06T22:01:08.764Z,82.69
2023-02-06T22:03:35.494Z,82.62
2023-02-06T22:06:08.417Z,82.72
2023-02-06T22:08:36.478Z,82.01
2023-02-06T22:11:10.831Z,82.08
2023-02-06T22:13:37.173Z,82.27
2023-02-06T22:16:03.735Z,81.96
2023-02-06T22:18:30.163Z,82.50
2023-02-06T22:21:04.204Z,81.90
2023-02-06T22:23:30.581Z,82.17
2023-02-06T22:25:56.953Z,81.73
2023-02-06T22:28:23.311Z,82.58
2023-02-06T22:30:49.856Z,82.89
2023-02-06T22:33:16.249Z,82.23
2023-02-06T22:35:42.634Z,81.66
2023-02-06T22:38:09.079Z,81.79
2023-02-06T22:40:35.430Z,81.56
2023-02-06T22:43:01.770Z,81.35
2023-02-06T22:45:28.235Z,81.79
2023-02-06T22:47:54.608Z,82.16
2023-02-06T22:50:21.912Z,81.11
2023-02-06T22:53:06.825Z,81.53
2023-02-06T22:55:57.271Z,81.21
2023-02-06T22:58:23.643Z,80.95
2023-02-06T23:00:50.095Z,80.68
2023-02-06T23:03:16.561Z,80.21
2023-02-06T23:05:42.947Z,80.39
2023-02-06T23:08:09.275Z,80.00
2023-02-06T23:10:35.716Z,80.30
2023-02-06T23:13:02.256Z,80.65
2023-02-06T23:15:28.622Z,80.47
2023-02-06T23:17:58.282Z,81.24
2023-02-06T23:20:27.304Z,81.28
2023-02-06T23:22:53.684Z,80.67
2023-02-06T23:25:20.031Z,81.48
2023-02-06T23:27:46.448Z,80.11
2023-02-06T23:30:13.131Z,80.41
2023-02-06T23:32:39.507Z,80.48
2023-02-06T23:35:06.084Z,80.08
2023-02-06T23:37:32.477Z,79.68
2023-02-06T23:39:58.960Z,80.28
2023-02-06T23:42:25.308Z,80.37
2023-02-06T23:44:51.670Z,80.45
2023-02-06T23:47:18.024Z,80.25
2023-02-06T23:49:44.377Z,80.73
2023-02-06T23:52:10.773Z,81.07
2023-02-06T23:54:37.206Z,80.78
2023-02-06T23:57:03.683Z,81.21
2023-02-06T23:59:30.082Z,81.33
